createdAt,value
2022-11-08T00:01:58.468Z,20.00
2022-11-08T00:04:28.195Z,19.90
2022-11-08T00:07:14.934Z,19.90
2022-11-08T00:10:01.554Z,19.90
2022-11-08T00:12:49.533Z,19.90
2022-11-08T00:15:18.846Z,19.90
2022-11-08T00:17:47.969Z,19.90
2022-11-08T00:20:17.196Z,19.90
2022-11-08T00:22:46.320Z,19.90
2022-11-08T00:25:15.481Z,19.90
2022-11-08T00:27:46.013Z,19.90
2022-11-08T00:30:15.324Z,19.80
2022-11-08T00:32:44.448Z,19.80
2022-11-08T00:35:13.614Z,19.80
2022-11-08T00:37:42.739Z,19.80
2022-11-08T00:40:13.317Z,19.80
2022-11-08T00:42:42.456Z,19.80
2022-11-08T00:45:12.994Z,19.80
2022-11-08T00:47:42.114Z,19.80
2022-11-08T00:50:11.691Z,19.80
2022-11-08T00:52:40.902Z,19.80
2022-11-08T00:55:10.394Z,19.80
2022-11-08T00:57:58.378Z,19.80
2022-11-08T01:00:29.795Z,19.80
2022-11-08T01:03:12.664Z,19.70
2022-11-08T01:05:41.940Z,19.70
2022-11-08T01:08:11.840Z,19.70
2022-11-08T01:10:43.117Z,19.70
2022-11-08T01:13:13.145Z,19.70
2022-11-08T01:15:46.143Z,19.70
2022-11-08T01:18:17.705Z,19.70
2022-11-08T01:20:48.710Z,19.70
2022-11-08T01:23:18.779Z,19.70
2022-11-08T01:25:49.596Z,19.70
2022-11-08T01:28:19.261Z,19.70
2022-11-08T01:30:50.406Z,19.70
2022-11-08T01:33:19.561Z,19.60
2022-11-08T01:35:48.688Z,19.60
2022-11-08T01:38:18.106Z,19.60
2022-11-08T01:40:49.440Z,19.60
2022-11-08T01:43:43.660Z,19.60
2022-11-08T01:46:36.802Z,19.60
2022-11-08T01:49:39.595Z,19.60
2022-11-08T01:52:33.464Z,19.60
2022-11-08T01:55:09.347Z,19.60
2022-11-08T01:57:44.164Z,19.60
2022-11-08T02:00:14.688Z,19.60
2022-11-08T02:02:48.550Z,19.60
2022-11-08T02:05:28.616Z,19.60
2022-11-08T02:08:02.003Z,19.50
2022-11-08T02:10:35.310Z,19.50
2022-11-08T02:13:09.618Z,19.50
2022-11-08T02:15:41.656Z,19.50
2022-11-08T02:18:12.952Z,19.50
2022-11-08T02:20:45.581Z,19.50
2022-11-08T02:23:21.820Z,19.50
2022-11-08T02:25:53.155Z,19.50
2022-11-08T02:28:22.741Z,19.50
2022-11-08T02:30:51.931Z,19.50
2022-11-08T02:33:23.160Z,19.50
2022-11-08T02:35:55.242Z,19.50
2022-11-08T02:38:27.347Z,19.50
2022-11-08T02:40:59.412Z,19.50
2022-11-08T02:43:28.699Z,19.40
2022-11-08T02:45:59.765Z,19.40
2022-11-08T02:48:29.101Z,19.40
2022-11-08T02:50:58.395Z,19.40
2022-11-08T02:53:27.594Z,19.40
2022-11-08T02:55:58.225Z,19.40
2022-11-08T02:58:28.139Z,19.40
2022-11-08T03:00:57.411Z,19.40
2022-11-08T03:03:26.694Z,19.40
2022-11-08T03:05:57.882Z,19.40
2022-11-08T03:08:27.043Z,19.40
2022-11-08T03:10:57.682Z,19.40
2022-11-08T03:13:26.909Z,19.40
2022-11-08T03:15:56.099Z,19.40
2022-11-08T03:18:25.215Z,19.40
2022-11-08T03:20:54.518Z,19.30
2022-11-08T03:23:23.721Z,19.30
2022-11-08T03:25:52.905Z,19.30
2022-11-08T03:28:23.730Z,19.30
2022-11-08T03:30:53.747Z,19.30
2022-11-08T03:33:22.882Z,19.30
2022-11-08T03:35:53.106Z,19.30
2022-11-08T03:38:22.740Z,19.30
2022-11-08T03:40:51.898Z,19.30
2022-11-08T03:43:22.414Z,19.30
2022-11-08T03:45:51.576Z,19.30
2022-11-08T03:48:20.957Z,19.30
2022-11-08T03:50:50.419Z,19.30
2022-11-08T03:53:19.639Z,19.30
2022-11-08T03:55:48.735Z,19.30
2022-11-08T03:58:17.953Z,19.30
2022-11-08T04:00:48.722Z,19.20
2022-11-08T04:03:17.859Z,19.20
2022-11-08T04:05:47.612Z,19.20
2022-11-08T04:08:17.429Z,19.20
2022-11-08T04:10:46.907Z,19.20
2022-11-08T04:13:33.714Z,19.20
2022-11-08T04:16:04.366Z,19.20
2022-11-08T04:18:50.972Z,19.20
2022-11-08T04:21:22.114Z,19.20
2022-11-08T04:23:52.486Z,19.20
2022-11-08T04:26:22.946Z,19.20
2022-11-08T04:28:52.104Z,19.20
2022-11-08T04:31:22.636Z,19.20
2022-11-08T04:33:51.750Z,19.20
2022-11-08T04:36:20.871Z,19.20
2022-11-08T04:38:50.832Z,19.20
2022-11-08T04:41:22.237Z,19.20
2022-11-08T04:43:52.371Z,19.20
2022-11-08T04:46:24.864Z,19.20
2022-11-08T04:48:55.680Z,19.10
2022-11-08T04:51:27.999Z,19.10
2022-11-08T04:53:58.264Z,19.10
2022-11-08T04:56:28.960Z,19.10
2022-11-08T04:59:00.413Z,19.10
2022-11-08T05:01:32.367Z,19.10
2022-11-08T05:04:01.625Z,19.10
2022-11-08T05:06:32.493Z,19.10
2022-11-08T05:09:02.274Z,19.10
2022-11-08T05:11:32.247Z,19.10
2022-11-08T05:14:01.626Z,19.10
2022-11-08T05:16:33.685Z,19.10
2022-11-08T05:19:03.486Z,19.10
2022-11-08T05:21:50.516Z,19.10
2022-11-08T05:24:20.214Z,19.10
2022-11-08T05:26:49.851Z,19.10
2022-11-08T05:29:19.247Z,19.10
2022-11-08T05:31:50.067Z,19.20
2022-11-08T05:34:19.367Z,19.20
2022-11-08T05:36:48.514Z,19.20
2022-11-08T05:39:17.789Z,19.20
2022-11-08T05:41:46.993Z,19.20
2022-11-08T05:44:16.257Z,19.20
2022-11-08T05:46:45.459Z,19.20
2022-11-08T05:49:16.099Z,19.10
2022-11-08T05:51:45.447Z,19.10
2022-11-08T05:54:14.499Z,19.10
2022-11-08T05:56:43.678Z,19.10
2022-11-08T05:59:12.878Z,19.10
2022-11-08T06:01:42.543Z,19.10
2022-11-08T06:04:11.743Z,19.10
2022-11-08T06:06:42.755Z,19.10
2022-11-08T06:09:12.050Z,19.10
2022-11-08T06:11:41.175Z,19.10
2022-11-08T06:14:10.378Z,19.10
2022-11-08T06:16:39.664Z,19.10
2022-11-08T06:19:08.802Z,19.00
2022-11-08T06:21:37.930Z,19.00
2022-11-08T06:24:09.305Z,19.00
2022-11-08T06:26:38.433Z,19.00
2022-11-08T06:29:07.619Z,19.00
2022-11-08T06:31:40.598Z,19.00
2022-11-08T06:34:12.446Z,19.00
2022-11-08T06:36:41.574Z,19.00
2022-11-08T06:39:12.191Z,19.00
2022-11-08T06:41:41.392Z,19.00
2022-11-08T06:44:10.527Z,19.00
2022-11-08T06:46:39.740Z,19.00
2022-11-08T06:49:08.842Z,19.00
2022-11-08T06:51:38.076Z,19.00
2022-11-08T06:54:08.826Z,18.90
2022-11-08T06:56:39.956Z,18.90
2022-11-08T06:59:10.120Z,18.90
2022-11-08T07:01:44.563Z,18.90
2022-11-08T07:04:14.690Z,18.90
2022-11-08T07:06:43.859Z,18.90
2022-11-08T07:09:13.291Z,18.90
2022-11-08T07:11:44.160Z,18.90
2022-11-08T07:14:13.331Z,18.90
2022-11-08T07:16:42.838Z,18.90
2022-11-08T07:19:12.095Z,18.90
2022-11-08T07:21:41.268Z,18.90
2022-11-08T07:24:10.573Z,18.90
2022-11-08T07:26:39.696Z,18.90
2022-11-08T07:29:15.617Z,18.90
2022-11-08T07:31:45.198Z,18.90
2022-11-08T07:34:14.408Z,18.90
2022-11-08T07:36:43.487Z,18.90
2022-11-08T07:39:12.858Z,18.90
2022-11-08T07:41:41.941Z,18.80
2022-11-08T07:44:12.628Z,18.80
2022-11-08T07:46:41.816Z,18.90
2022-11-08T07:49:11.042Z,18.80
2022-11-08T07:51:40.179Z,18.80
2022-11-08T07:54:09.321Z,18.90
2022-11-08T07:56:38.437Z,18.80
2022-11-08T07:59:07.655Z,18.80
2022-11-08T08:01:38.373Z,18.80
2022-11-08T08:04:07.498Z,18.80
2022-11-08T08:06:36.699Z,18.80
2022-11-08T08:09:06.418Z,18.80
2022-11-08T08:11:35.563Z,18.80
2022-11-08T08:14:04.723Z,18.80
2022-11-08T08:16:36.953Z,18.80
2022-11-08T08:19:07.688Z,18.80
2022-11-08T08:21:36.851Z,18.80
2022-11-08T08:24:06.563Z,18.80
2022-11-08T08:26:35.732Z,18.80
2022-11-08T08:29:05.007Z,18.80
2022-11-08T08:31:34.096Z,18.80
2022-11-08T08:34:03.244Z,18.80
2022-11-08T08:36:33.795Z,18.80
2022-11-08T08:39:02.991Z,18.80
2022-11-08T08:41:32.108Z,18.80
2022-11-08T08:44:01.323Z,18.80
2022-11-08T08:46:30.411Z,18.80
2022-11-08T08:48:59.619Z,18.80
2022-11-08T08:51:28.825Z,18.80
2022-11-08T08:53:59.907Z,18.80
2022-11-08T08:56:29.076Z,18.80
2022-11-08T09:01:47.859Z,18.80
2022-11-08T09:04:17.045Z,18.80
2022-11-08T09:06:46.232Z,18.80
2022-11-08T09:09:16.898Z,18.80
2022-11-08T09:11:46.007Z,18.80
2022-11-08T09:14:15.144Z,18.70
2022-11-08T09:16:44.300Z,18.70
2022-11-08T09:19:13.539Z,18.80
2022-11-08T09:21:42.819Z,18.70
2022-11-08T09:24:11.924Z,18.70
2022-11-08T09:26:42.436Z,18.80
2022-11-08T09:29:11.574Z,18.80
2022-11-08T09:31:40.706Z,18.70
2022-11-08T09:34:09.952Z,18.80
2022-11-08T09:36:39.720Z,18.80
2022-11-08T09:39:08.899Z,18.80
2022-11-08T09:42:03.416Z,18.80
2022-11-08T09:45:00.944Z,18.80
2022-11-08T09:47:33.384Z,18.80
2022-11-08T09:50:07.114Z,18.70
2022-11-08T09:52:37.024Z,18.70
2022-11-08T09:55:20.900Z,18.70
2022-11-08T09:58:06.423Z,18.80
2022-11-08T10:00:38.867Z,18.80
2022-11-08T10:03:12.883Z,18.70
2022-11-08T10:05:44.952Z,18.70
2022-11-08T10:08:26.541Z,18.70
2022-11-08T10:11:20.833Z,18.70
2022-11-08T10:14:18.523Z,18.80
2022-11-08T10:17:09.010Z,18.70
2022-11-08T10:20:02.325Z,18.70
2022-11-08T10:22:49.541Z,18.70
2022-11-08T10:25:25.692Z,18.70
2022-11-08T10:27:57.827Z,18.70
2022-11-08T10:30:34.654Z,18.70
2022-11-08T10:33:13.295Z,18.70
2022-11-08T10:35:46.988Z,18.70
2022-11-08T10:38:20.599Z,18.70
2022-11-08T10:40:57.624Z,18.70
2022-11-08T10:43:35.382Z,18.70
2022-11-08T10:46:06.419Z,18.70
2022-11-08T10:48:38.956Z,18.70
2022-11-08T10:51:09.326Z,18.70
2022-11-08T10:53:45.567Z,18.70
2022-11-08T10:56:15.015Z,18.70
2022-11-08T10:58:45.066Z,18.70
2022-11-08T11:01:20.777Z,18.70
2022-11-08T11:03:51.036Z,18.70
2022-11-08T11:06:26.040Z,18.70
2022-11-08T11:08:58.408Z,18.70
2022-11-08T11:11:36.335Z,18.70
2022-11-08T11:14:16.537Z,18.70
2022-11-08T11:16:57.673Z,18.70
2022-11-08T11:19:27.770Z,18.70
2022-11-08T11:21:59.649Z,18.70
2022-11-08T11:24:28.852Z,18.70
2022-11-08T11:27:07.655Z,18.70
2022-11-08T11:29:37.996Z,18.70
2022-11-08T11:32:26.426Z,18.70
2022-11-08T11:34:58.380Z,18.70
2022-11-08T11:37:35.711Z,18.70
2022-11-08T11:40:19.528Z,18.70
2022-11-08T11:43:02.708Z,18.70
2022-11-08T11:45:44.389Z,18.70
2022-11-08T11:48:19.138Z,18.70
2022-11-08T11:50:50.920Z,18.70
2022-11-08T11:53:24.212Z,18.70
2022-11-08T11:56:22.139Z,18.70
2022-11-08T11:59:17.239Z,18.70
2022-11-08T12:01:59.857Z,18.70
2022-11-08T12:04:56.746Z,18.70
2022-11-08T12:07:28.091Z,18.70
2022-11-08T12:10:17.572Z,18.70
2022-11-08T12:12:56.546Z,18.70
2022-11-08T12:15:35.855Z,18.70
2022-11-08T12:18:37.040Z,18.70
2022-11-08T12:21:15.176Z,18.70
2022-11-08T12:24:05.795Z,18.70
2022-11-08T12:26:40.379Z,18.70
2022-11-08T12:29:28.206Z,18.70
2022-11-08T12:32:19.662Z,18.70
2022-11-08T12:35:01.868Z,18.70
2022-11-08T12:37:42.191Z,18.70
2022-11-08T12:40:21.003Z,18.70
2022-11-08T12:43:06.177Z,18.70
2022-11-08T12:45:57.981Z,18.70
2022-11-08T12:48:48.694Z,18.70
2022-11-08T12:51:27.086Z,18.70
2022-11-08T12:54:19.054Z,18.60
2022-11-08T12:56:49.888Z,18.70
2022-11-08T12:59:24.104Z,18.70
2022-11-08T13:01:54.958Z,18.70
2022-11-08T13:04:51.598Z,18.70
2022-11-08T13:07:31.773Z,18.70
2022-11-08T13:10:12.482Z,18.70
2022-11-08T13:12:49.343Z,18.70
2022-11-08T13:15:21.129Z,18.70
2022-11-08T13:18:24.331Z,18.70
2022-11-08T13:20:53.677Z,18.70
2022-11-08T13:23:31.741Z,18.70
2022-11-08T13:26:21.696Z,18.70
2022-11-08T13:28:51.996Z,18.70
2022-11-08T13:31:41.465Z,18.70
2022-11-08T13:34:47.884Z,18.70
2022-11-08T13:37:38.057Z,18.70
2022-11-08T13:40:30.702Z,18.70
2022-11-08T13:43:35.031Z,18.70
2022-11-08T13:46:41.196Z,18.70
2022-11-08T13:49:24.356Z,18.70
2022-11-08T13:52:33.735Z,18.60
2022-11-08T13:55:02.972Z,18.70
2022-11-08T13:58:00.710Z,18.60
2022-11-08T14:00:45.418Z,18.70
2022-11-08T14:03:53.596Z,18.70
2022-11-08T14:06:29.410Z,18.70
2022-11-08T14:09:05.032Z,18.60
2022-11-08T14:11:46.757Z,18.60
2022-11-08T14:14:35.216Z,18.70
2022-11-08T14:17:43.431Z,18.70
2022-11-08T14:20:35.152Z,18.70
2022-11-08T14:23:26.583Z,18.70
2022-11-08T14:25:58.324Z,18.70
2022-11-08T14:28:29.944Z,18.70
2022-11-08T14:31:01.058Z,18.70
2022-11-08T14:33:31.135Z,18.70
2022-11-08T14:36:02.168Z,18.70
2022-11-08T14:38:35.446Z,18.70
2022-11-08T14:41:07.578Z,18.70
2022-11-08T14:43:44.171Z,18.70
2022-11-08T14:46:14.572Z,18.70
2022-11-08T14:48:50.840Z,18.70
2022-11-08T14:51:20.544Z,18.70
2022-11-08T14:53:52.434Z,18.70
2022-11-08T14:56:24.008Z,18.70
2022-11-08T14:58:54.902Z,18.70
2022-11-08T15:01:26.364Z,18.70
2022-11-08T15:03:58.173Z,18.70
2022-11-08T15:06:32.594Z,18.70
2022-11-08T15:09:04.537Z,18.70
2022-11-08T15:11:35.827Z,18.70
2022-11-08T15:14:06.985Z,18.70
2022-11-08T15:16:41.632Z,18.70
2022-11-08T15:19:29.625Z,18.70
2022-11-08T15:21:59.440Z,18.70
2022-11-08T15:24:37.033Z,18.60
2022-11-08T15:27:16.969Z,18.70
2022-11-08T15:29:54.225Z,18.60
2022-11-08T15:32:23.934Z,18.60
2022-11-08T15:34:56.301Z,18.60
2022-11-08T15:37:32.870Z,18.60
2022-11-08T15:40:05.730Z,18.60
2022-11-08T15:42:40.554Z,18.60
2022-11-08T15:45:26.059Z,18.60
2022-11-08T15:48:02.503Z,18.70
2022-11-08T15:50:33.238Z,18.60
2022-11-08T15:53:04.758Z,18.60
2022-11-08T15:55:38.875Z,18.60
2022-11-08T15:58:15.362Z,18.60
2022-11-08T16:00:47.365Z,18.70
2022-11-08T16:03:16.935Z,18.60
2022-11-08T16:05:46.042Z,18.60
2022-11-08T16:08:19.969Z,18.70
2022-11-08T16:10:53.566Z,18.70
2022-11-08T16:13:26.965Z,18.70
2022-11-08T16:15:56.188Z,18.80
2022-11-08T16:18:25.469Z,18.80
2022-11-08T16:20:54.929Z,18.80
2022-11-08T16:23:24.074Z,18.90
2022-11-08T16:25:57.017Z,18.90
2022-11-08T16:28:29.845Z,19.00
2022-11-08T16:30:59.135Z,19.00
2022-11-08T16:33:30.485Z,19.00
2022-11-08T16:36:01.055Z,19.10
2022-11-08T16:38:31.750Z,19.10
2022-11-08T16:41:02.576Z,19.20
2022-11-08T16:43:32.366Z,19.20
2022-11-08T16:46:07.337Z,19.20
2022-11-08T16:48:39.322Z,19.20
2022-11-08T16:51:15.041Z,19.20
2022-11-08T16:53:44.467Z,19.30
2022-11-08T16:56:15.329Z,19.30
2022-11-08T16:58:45.253Z,19.30
2022-11-08T17:01:17.450Z,19.30
2022-11-08T17:03:46.782Z,19.40
2022-11-08T17:06:18.601Z,19.40
2022-11-08T17:08:48.329Z,19.40
2022-11-08T17:11:20.956Z,19.40
2022-11-08T17:13:50.701Z,19.50
2022-11-08T17:16:21.427Z,19.50
2022-11-08T17:18:53.090Z,19.50
2022-11-08T17:21:44.720Z,19.50
2022-11-08T17:24:14.724Z,19.60
2022-11-08T17:26:51.189Z,19.60
2022-11-08T17:29:20.626Z,19.60
2022-11-08T17:31:50.452Z,19.60
2022-11-08T17:34:19.744Z,19.60
2022-11-08T17:36:52.864Z,19.70
2022-11-08T17:39:22.621Z,19.70
2022-11-08T17:41:53.311Z,19.70
2022-11-08T17:44:22.554Z,19.80
2022-11-08T17:46:51.849Z,19.70
2022-11-08T17:49:21.089Z,19.80
2022-11-08T17:51:50.265Z,19.80
2022-11-08T17:54:19.687Z,19.80
2022-11-08T17:56:48.866Z,19.80
2022-11-08T17:59:19.579Z,19.90
2022-11-08T18:01:49.013Z,19.90
2022-11-08T18:04:18.723Z,19.90
2022-11-08T18:06:48.204Z,19.90
2022-11-08T18:09:17.663Z,19.90
2022-11-08T18:11:48.867Z,19.90
2022-11-08T18:14:28.063Z,20.00
2022-11-08T18:16:58.052Z,20.00
2022-11-08T18:19:27.261Z,20.00
2022-11-08T18:21:56.506Z,20.00
2022-11-08T18:24:25.663Z,20.00
2022-11-08T18:26:54.860Z,20.00
2022-11-08T18:29:25.570Z,20.10
2022-11-08T18:31:54.809Z,20.20
2022-11-08T18:34:24.006Z,20.20
2022-11-08T18:36:53.245Z,20.30
2022-11-08T18:39:22.510Z,20.30
2022-11-08T18:41:51.722Z,20.20
2022-11-08T18:44:20.957Z,20.20
2022-11-08T18:46:51.887Z,20.30
2022-11-08T18:49:21.258Z,20.30
2022-11-08T18:51:52.865Z,20.40
2022-11-08T18:54:22.455Z,20.40
2022-11-08T18:56:51.618Z,20.40
2022-11-08T18:59:20.912Z,20.50
2022-11-08T19:01:51.494Z,20.50
2022-11-08T19:04:20.724Z,20.60
2022-11-08T19:06:54.299Z,20.60
2022-11-08T19:09:24.279Z,20.60
2022-11-08T19:11:54.005Z,20.60
2022-11-08T19:14:23.253Z,20.60
2022-11-08T19:16:56.335Z,20.60
2022-11-08T19:19:25.830Z,20.60
2022-11-08T19:21:55.130Z,20.60
2022-11-08T19:24:24.386Z,20.60
2022-11-08T19:26:53.518Z,20.70
2022-11-08T19:29:23.076Z,20.70
2022-11-08T19:31:53.858Z,20.70
2022-11-08T19:34:23.110Z,20.70
2022-11-08T19:36:55.769Z,20.70
2022-11-08T19:39:25.407Z,20.70
2022-11-08T19:41:54.763Z,20.70
2022-11-08T19:44:23.953Z,20.70
2022-11-08T19:46:54.533Z,20.80
2022-11-08T19:49:26.500Z,20.80
2022-11-08T19:51:55.670Z,20.80
2022-11-08T19:54:24.834Z,20.80
2022-11-08T19:57:09.255Z,20.80
2022-11-08T19:59:38.627Z,20.80
2022-11-08T20:02:10.849Z,20.80
2022-11-08T20:04:40.233Z,20.90
2022-11-08T20:07:09.521Z,20.90
2022-11-08T20:09:38.920Z,20.90
2022-11-08T20:12:08.276Z,20.90
2022-11-08T20:14:37.471Z,20.90
2022-11-08T20:17:06.588Z,20.90
2022-11-08T20:19:37.275Z,20.90
2022-11-08T20:22:06.713Z,20.90
2022-11-08T20:24:36.414Z,20.90
2022-11-08T20:27:06.183Z,21.00
2022-11-08T20:29:35.972Z,21.00
2022-11-08T20:32:05.740Z,21.00
2022-11-08T20:34:38.629Z,21.00
2022-11-08T20:37:07.986Z,21.10
2022-11-08T20:39:37.265Z,21.10
2022-11-08T20:42:06.482Z,21.00
2022-11-08T20:44:35.646Z,21.10
2022-11-08T20:47:06.695Z,21.10
2022-11-08T20:49:37.673Z,21.10
2022-11-08T20:52:07.835Z,21.20
2022-11-08T20:54:42.691Z,21.20
2022-11-08T20:57:13.132Z,21.20
2022-11-08T20:59:42.433Z,21.20
2022-11-08T21:02:12.885Z,21.20
2022-11-08T21:04:43.604Z,21.30
2022-11-08T21:08:01.418Z,21.30
2022-11-08T21:10:35.249Z,21.30
2022-11-08T21:12:51.888Z,21.20
2022-11-08T21:15:26.743Z,21.20
2022-11-08T21:17:56.532Z,21.10
2022-11-08T21:20:27.598Z,21.10
2022-11-08T21:22:57.079Z,21.00
2022-11-08T21:25:26.530Z,21.00
2022-11-08T21:27:56.034Z,20.90
2022-11-08T21:30:25.419Z,20.90
2022-11-08T21:32:54.973Z,20.90
2022-11-08T21:35:24.736Z,20.90
2022-11-08T21:37:55.777Z,20.80
2022-11-08T21:40:25.154Z,20.80
2022-11-08T21:42:54.256Z,20.80
2022-11-08T21:45:23.522Z,20.80
2022-11-08T21:47:53.413Z,20.80
2022-11-08T21:50:23.507Z,20.80
2022-11-08T21:52:54.882Z,20.80
2022-11-08T21:55:23.990Z,20.70
2022-11-08T21:57:53.178Z,20.70
2022-11-08T22:00:22.449Z,20.70
2022-11-08T22:02:51.621Z,20.70
2022-11-08T22:05:20.694Z,20.70
2022-11-08T22:07:49.816Z,20.70
2022-11-08T22:10:20.718Z,20.60
2022-11-08T22:12:49.943Z,20.60
2022-11-08T22:15:19.241Z,20.60
2022-11-08T22:18:14.272Z,20.60
2022-11-08T22:20:58.389Z,20.60
2022-11-08T22:23:27.501Z,20.60
2022-11-08T22:25:58.011Z,20.50
2022-11-08T22:28:27.300Z,20.50
2022-11-08T22:30:56.564Z,20.50
2022-11-08T22:33:25.729Z,20.50
2022-11-08T22:35:54.820Z,20.50
2022-11-08T22:38:23.925Z,20.50
2022-11-08T22:40:53.432Z,20.40
2022-11-08T22:43:24.023Z,20.40
2022-11-08T22:45:53.132Z,20.40
2022-11-08T22:48:22.985Z,20.40
2022-11-08T22:50:52.173Z,20.40
2022-11-08T22:53:21.386Z,20.40
2022-11-08T22:55:51.023Z,20.40
2022-11-08T22:58:20.336Z,20.40
2022-11-08T23:00:51.712Z,20.40
2022-11-08T23:03:21.098Z,20.30
2022-11-08T23:05:51.190Z,20.40
2022-11-08T23:08:21.277Z,20.30
2022-11-08T23:11:08.096Z,20.30
2022-11-08T23:13:55.892Z,20.30
2022-11-08T23:16:40.152Z,20.30
2022-11-08T23:19:28.815Z,20.30
2022-11-08T23:22:15.132Z,20.30
2022-11-08T23:24:44.600Z,20.30
2022-11-08T23:27:32.342Z,20.30
2022-11-08T23:30:19.012Z,20.30
2022-11-08T23:32:50.974Z,20.20
2022-11-08T23:35:22.262Z,20.20
2022-11-08T23:37:51.555Z,20.20
2022-11-08T23:40:38.999Z,20.20
2022-11-08T23:43:28.587Z,20.20
2022-11-08T23:45:58.327Z,20.20
2022-11-08T23:48:29.988Z,20.20
2022-11-08T23:50:59.323Z,20.20
2022-11-08T23:53:28.471Z,20.20
2022-11-08T23:55:57.868Z,20.20
2022-11-08T23:58:27.562Z,20.20
